Mount Hersey, Arkansas
Current Conditions -  °F | °C
As of 5:53 AM on Sunday 25 Jan 2015 (Local Time) from KHRO Reporting Station
Light Rain Light Rain  
Wind Chill: 37°   Ceiling: 5000
Heat Index: 44°   Visibility: 10mi
Dew Point: 41°   Wind: 14mph
Humidity: 89%   Direction: 260°W
Pressure: 29.7"   Gusts: NA
Location:  36.0414°N, 92.9867°W
Report Text: KHRO 251153Z AUTO 26012KT 10SM -RA OVC050 07/05 A2970 RMK AO2 RAB08 SLP058 P0010 60010 70010 T00670050 10117 20067 55014
Loading
Personal Weather Stations






























Interactive Weather Map New forecast layout! Learn more

10-Day Weather Forecast

Advertisements
Track Severe Weather on mobile